sensor_id;sensor_type;location;lat;lon;timestamp;P1;durP1;ratioP1;P2;durP2;ratioP2
50495;SDS011;38806;51.554;5.704;2023-09-12T00:00:17;67.20;;;37.90;;
50495;SDS011;38806;51.554;5.704;2023-09-12T00:02:17;70.77;;;42.30;;
50495;SDS011;38806;51.554;5.704;2023-09-12T00:04:18;70.05;;;40.35;;
50495;SDS011;38806;51.554;5.704;2023-09-12T00:06:18;69.30;;;37.25;;
50495;SDS011;38806;51.554;5.704;2023-09-12T00:08:18;66.55;;;39.40;;
50495;SDS011;38806;51.554;5.704;2023-09-12T00:10:19;57.63;;;38.90;;
50495;SDS011;38806;51.554;5.704;2023-09-12T00:12:21;60.30;;;34.55;;
50495;SDS011;38806;51.554;5.704;2023-09-12T00:14:22;56.63;;;36.45;;
50495;SDS011;38806;51.554;5.704;2023-09-12T00:16:22;67.90;;;38.70;;
50495;SDS011;38806;51.554;5.704;2023-09-12T00:18:22;68.30;;;37.33;;
50495;SDS011;38806;51.554;5.704;2023-09-12T00:20:22;60.97;;;35.33;;
50495;SDS011;38806;51.554;5.704;2023-09-12T00:22:23;59.63;;;33.72;;
50495;SDS011;38806;51.554;5.704;2023-09-12T00:24:23;52.83;;;30.77;;
50495;SDS011;38806;51.554;5.704;2023-09-12T00:26:23;62.88;;;34.33;;
50495;SDS011;38806;51.554;5.704;2023-09-12T00:28:23;53.53;;;33.07;;
50495;SDS011;38806;51.554;5.704;2023-09-12T00:30:23;71.00;;;39.10;;
50495;SDS011;38806;51.554;5.704;2023-09-12T00:32:24;63.90;;;35.03;;
50495;SDS011;38806;51.554;5.704;2023-09-12T00:34:24;68.57;;;38.42;;
50495;SDS011;38806;51.554;5.704;2023-09-12T00:36:24;57.17;;;32.83;;
50495;SDS011;38806;51.554;5.704;2023-09-12T00:38:24;54.93;;;31.50;;
50495;SDS011;38806;51.554;5.704;2023-09-12T00:40:25;48.47;;;29.00;;
50495;SDS011;38806;51.554;5.704;2023-09-12T00:42:25;64.78;;;36.70;;
50495;SDS011;38806;51.554;5.704;2023-09-12T00:44:26;61.22;;;35.72;;
50495;SDS011;38806;51.554;5.704;2023-09-12T00:46:26;58.73;;;32.37;;
50495;SDS011;38806;51.554;5.704;2023-09-12T00:48:27;61.72;;;35.75;;
50495;SDS011;38806;51.554;5.704;2023-09-12T00:50:27;46.00;;;28.30;;
50495;SDS011;38806;51.554;5.704;2023-09-12T00:52:28;42.17;;;25.63;;
50495;SDS011;38806;51.554;5.704;2023-09-12T00:54:29;43.90;;;26.48;;
50495;SDS011;38806;51.554;5.704;2023-09-12T00:56:29;54.97;;;27.83;;
50495;SDS011;38806;51.554;5.704;2023-09-12T00:58:30;75.05;;;38.33;;
50495;SDS011;38806;51.554;5.704;2023-09-12T01:00:30;74.72;;;39.20;;
50495;SDS011;38806;51.554;5.704;2023-09-12T01:02:30;65.28;;;39.40;;
50495;SDS011;38806;51.554;5.704;2023-09-12T01:04:30;69.75;;;36.60;;
50495;SDS011;38806;51.554;5.704;2023-09-12T01:06:32;56.58;;;33.33;;
50495;SDS011;38806;51.554;5.704;2023-09-12T01:08:34;55.65;;;31.50;;
50495;SDS011;38806;51.554;5.704;2023-09-12T01:10:34;83.65;;;39.50;;
50495;SDS011;38806;51.554;5.704;2023-09-12T01:12:35;81.45;;;41.28;;
50495;SDS011;38806;51.554;5.704;2023-09-12T01:14:35;83.93;;;39.42;;
50495;SDS011;38806;51.554;5.704;2023-09-12T01:16:36;74.33;;;35.40;;
50495;SDS011;38806;51.554;5.704;2023-09-12T01:18:36;63.50;;;34.33;;
50495;SDS011;38806;51.554;5.704;2023-09-12T01:20:36;42.28;;;27.55;;
50495;SDS011;38806;51.554;5.704;2023-09-12T01:26:49;47.58;;;28.92;;
50495;SDS011;38806;51.554;5.704;2023-09-12T01:30:53;65.03;;;33.22;;
50495;SDS011;38806;51.554;5.704;2023-09-12T01:32:54;53.33;;;27.15;;
50495;SDS011;38806;51.554;5.704;2023-09-12T01:34:55;50.13;;;29.45;;
50495;SDS011;38806;51.554;5.704;2023-09-12T01:36:55;41.87;;;26.50;;
50495;SDS011;38806;51.554;5.704;2023-09-12T01:38:55;47.55;;;28.40;;
50495;SDS011;38806;51.554;5.704;2023-09-12T01:40:55;45.93;;;26.27;;
50495;SDS011;38806;51.554;5.704;2023-09-12T01:42:56;43.58;;;27.60;;
50495;SDS011;38806;51.554;5.704;2023-09-12T01:44:56;38.15;;;23.35;;
50495;SDS011;38806;51.554;5.704;2023-09-12T01:46:58;51.33;;;27.48;;
50495;SDS011;38806;51.554;5.704;2023-09-12T01:49:00;49.05;;;28.52;;
50495;SDS011;38806;51.554;5.704;2023-09-12T01:51:03;54.88;;;30.45;;
50495;SDS011;38806;51.554;5.704;2023-09-12T01:53:04;49.50;;;29.27;;
50495;SDS011;38806;51.554;5.704;2023-09-12T01:55:04;41.05;;;24.30;;
50495;SDS011;38806;51.554;5.704;2023-09-12T01:57:05;38.13;;;26.05;;
50495;SDS011;38806;51.554;5.704;2023-09-12T01:59:05;49.33;;;26.83;;
50495;SDS011;38806;51.554;5.704;2023-09-12T02:01:06;43.50;;;25.17;;
50495;SDS011;38806;51.554;5.704;2023-09-12T02:03:06;55.03;;;30.17;;
50495;SDS011;38806;51.554;5.704;2023-09-12T02:07:06;61.17;;;32.30;;
50495;SDS011;38806;51.554;5.704;2023-09-12T02:09:06;49.50;;;29.80;;
50495;SDS011;38806;51.554;5.704;2023-09-12T02:11:07;53.88;;;31.70;;
50495;SDS011;38806;51.554;5.704;2023-09-12T02:13:07;72.55;;;37.20;;
50495;SDS011;38806;51.554;5.704;2023-09-12T02:15:07;78.60;;;41.87;;
50495;SDS011;38806;51.554;5.704;2023-09-12T02:17:08;52.75;;;30.00;;
50495;SDS011;38806;51.554;5.704;2023-09-12T02:19:08;45.00;;;29.33;;
50495;SDS011;38806;51.554;5.704;2023-09-12T02:21:08;60.97;;;34.43;;
50495;SDS011;38806;51.554;5.704;2023-09-12T02:23:08;69.67;;;34.00;;
50495;SDS011;38806;51.554;5.704;2023-09-12T02:25:08;48.07;;;29.43;;
50495;SDS011;38806;51.554;5.704;2023-09-12T02:27:08;78.95;;;35.95;;
50495;SDS011;38806;51.554;5.704;2023-09-12T02:29:09;46.47;;;26.53;;
50495;SDS011;38806;51.554;5.704;2023-09-12T02:31:10;42.03;;;24.83;;
50495;SDS011;38806;51.554;5.704;2023-09-12T02:33:11;37.00;;;24.33;;
50495;SDS011;38806;51.554;5.704;2023-09-12T02:35:11;40.47;;;22.33;;
50495;SDS011;38806;51.554;5.704;2023-09-12T02:37:11;37.20;;;24.87;;
50495;SDS011;38806;51.554;5.704;2023-09-12T02:39:12;35.78;;;21.13;;
50495;SDS011;38806;51.554;5.704;2023-09-12T02:41:12;34.73;;;22.20;;
50495;SDS011;38806;51.554;5.704;2023-09-12T02:43:12;34.90;;;20.63;;
50495;SDS011;38806;51.554;5.704;2023-09-12T02:45:12;36.57;;;22.33;;
50495;SDS011;38806;51.554;5.704;2023-09-12T02:47:12;42.57;;;26.20;;
50495;SDS011;38806;51.554;5.704;2023-09-12T02:49:13;41.53;;;25.55;;
50495;SDS011;38806;51.554;5.704;2023-09-12T02:51:13;39.77;;;24.10;;
50495;SDS011;38806;51.554;5.704;2023-09-12T02:53:13;33.03;;;19.85;;
50495;SDS011;38806;51.554;5.704;2023-09-12T02:55:13;39.60;;;23.85;;
50495;SDS011;38806;51.554;5.704;2023-09-12T02:57:13;38.15;;;24.30;;
50495;SDS011;38806;51.554;5.704;2023-09-12T02:59:14;41.90;;;24.77;;
50495;SDS011;38806;51.554;5.704;2023-09-12T03:01:17;39.33;;;25.75;;
50495;SDS011;38806;51.554;5.704;2023-09-12T03:03:18;34.13;;;23.02;;
50495;SDS011;38806;51.554;5.704;2023-09-12T03:05:18;41.63;;;24.08;;
50495;SDS011;38806;51.554;5.704;2023-09-12T03:07:18;45.63;;;26.73;;
50495;SDS011;38806;51.554;5.704;2023-09-12T03:09:18;44.75;;;26.40;;
50495;SDS011;38806;51.554;5.704;2023-09-12T03:11:19;40.42;;;25.77;;
50495;SDS011;38806;51.554;5.704;2023-09-12T03:13:19;39.20;;;24.17;;
50495;SDS011;38806;51.554;5.704;2023-09-12T03:15:20;41.97;;;25.83;;
50495;SDS011;38806;51.554;5.704;2023-09-12T03:17:20;34.30;;;20.73;;
50495;SDS011;38806;51.554;5.704;2023-09-12T03:19:20;39.90;;;23.38;;
50495;SDS011;38806;51.554;5.704;2023-09-12T03:21:20;45.25;;;26.63;;
50495;SDS011;38806;51.554;5.704;2023-09-12T03:23:21;45.15;;;24.08;;
50495;SDS011;38806;51.554;5.704;2023-09-12T03:25:21;35.20;;;22.17;;
50495;SDS011;38806;51.554;5.704;2023-09-12T03:27:21;56.25;;;31.05;;
50495;SDS011;38806;51.554;5.704;2023-09-12T03:29:21;77.68;;;39.25;;
50495;SDS011;38806;51.554;5.704;2023-09-12T03:31:22;68.15;;;35.55;;
50495;SDS011;38806;51.554;5.704;2023-09-12T03:33:23;55.65;;;29.63;;
50495;SDS011;38806;51.554;5.704;2023-09-12T03:35:23;45.30;;;27.00;;
50495;SDS011;38806;51.554;5.704;2023-09-12T03:37:23;55.10;;;30.97;;
50495;SDS011;38806;51.554;5.704;2023-09-12T03:39:27;64.32;;;32.67;;
50495;SDS011;38806;51.554;5.704;2023-09-12T03:41:27;39.13;;;26.33;;
50495;SDS011;38806;51.554;5.704;2023-09-12T03:43:27;37.37;;;23.40;;
50495;SDS011;38806;51.554;5.704;2023-09-12T03:45:27;35.25;;;23.67;;
50495;SDS011;38806;51.554;5.704;2023-09-12T03:47:28;44.78;;;25.10;;
50495;SDS011;38806;51.554;5.704;2023-09-12T03:49:28;46.15;;;27.55;;
50495;SDS011;38806;51.554;5.704;2023-09-12T03:51:28;47.40;;;28.52;;
50495;SDS011;38806;51.554;5.704;2023-09-12T03:53:29;41.10;;;24.23;;
50495;SDS011;38806;51.554;5.704;2023-09-12T03:55:29;41.20;;;22.40;;
50495;SDS011;38806;51.554;5.704;2023-09-12T03:57:29;44.27;;;26.07;;
50495;SDS011;38806;51.554;5.704;2023-09-12T03:59:29;38.27;;;24.23;;
50495;SDS011;38806;51.554;5.704;2023-09-12T04:01:30;39.43;;;23.80;;
50495;SDS011;38806;51.554;5.704;2023-09-12T04:03:30;63.17;;;33.53;;
50495;SDS011;38806;51.554;5.704;2023-09-12T04:05:30;44.97;;;26.63;;
50495;SDS011;38806;51.554;5.704;2023-09-12T04:07:30;41.20;;;24.38;;
50495;SDS011;38806;51.554;5.704;2023-09-12T04:09:31;38.22;;;23.63;;
50495;SDS011;38806;51.554;5.704;2023-09-12T04:11:31;44.38;;;23.83;;
50495;SDS011;38806;51.554;5.704;2023-09-12T04:13:31;47.03;;;26.55;;
50495;SDS011;38806;51.554;5.704;2023-09-12T04:15:31;49.97;;;28.30;;
50495;SDS011;38806;51.554;5.704;2023-09-12T04:17:31;46.20;;;28.37;;
50495;SDS011;38806;51.554;5.704;2023-09-12T04:19:32;43.25;;;26.35;;
50495;SDS011;38806;51.554;5.704;2023-09-12T04:21:32;45.67;;;26.10;;
50495;SDS011;38806;51.554;5.704;2023-09-12T04:23:32;45.83;;;27.40;;
50495;SDS011;38806;51.554;5.704;2023-09-12T04:25:32;44.53;;;27.33;;
50495;SDS011;38806;51.554;5.704;2023-09-12T04:27:33;39.03;;;22.90;;
50495;SDS011;38806;51.554;5.704;2023-09-12T04:29:34;51.97;;;29.83;;
50495;SDS011;38806;51.554;5.704;2023-09-12T04:31:37;56.67;;;32.55;;
50495;SDS011;38806;51.554;5.704;2023-09-12T04:33:38;70.07;;;33.97;;
50495;SDS011;38806;51.554;5.704;2023-09-12T04:35:38;76.18;;;39.63;;
50495;SDS011;38806;51.554;5.704;2023-09-12T04:37:38;74.47;;;38.80;;
50495;SDS011;38806;51.554;5.704;2023-09-12T04:39:38;81.10;;;44.80;;
50495;SDS011;38806;51.554;5.704;2023-09-12T04:41:39;69.90;;;37.97;;
50495;SDS011;38806;51.554;5.704;2023-09-12T04:43:39;67.93;;;40.08;;
50495;SDS011;38806;51.554;5.704;2023-09-12T04:45:39;56.22;;;34.95;;
50495;SDS011;38806;51.554;5.704;2023-09-12T04:47:39;69.40;;;37.92;;
50495;SDS011;38806;51.554;5.704;2023-09-12T04:49:40;59.67;;;36.95;;
50495;SDS011;38806;51.554;5.704;2023-09-12T04:51:40;67.20;;;39.30;;
50495;SDS011;38806;51.554;5.704;2023-09-12T04:53:40;65.88;;;36.67;;
50495;SDS011;38806;51.554;5.704;2023-09-12T04:55:40;59.20;;;34.55;;
50495;SDS011;38806;51.554;5.704;2023-09-12T04:57:40;63.97;;;35.57;;
50495;SDS011;38806;51.554;5.704;2023-09-12T04:59:41;61.63;;;33.63;;
50495;SDS011;38806;51.554;5.704;2023-09-12T05:01:41;61.17;;;35.80;;
50495;SDS011;38806;51.554;5.704;2023-09-12T05:03:41;60.17;;;35.47;;
50495;SDS011;38806;51.554;5.704;2023-09-12T05:05:41;58.53;;;36.97;;
50495;SDS011;38806;51.554;5.704;2023-09-12T05:07:41;59.25;;;33.25;;
50495;SDS011;38806;51.554;5.704;2023-09-12T05:09:42;54.97;;;33.27;;
50495;SDS011;38806;51.554;5.704;2023-09-12T05:11:42;54.28;;;31.35;;
50495;SDS011;38806;51.554;5.704;2023-09-12T05:13:44;53.05;;;31.77;;
50495;SDS011;38806;51.554;5.704;2023-09-12T05:15:44;45.00;;;27.73;;
50495;SDS011;38806;51.554;5.704;2023-09-12T05:17:44;45.70;;;27.40;;
50495;SDS011;38806;51.554;5.704;2023-09-12T05:19:44;37.07;;;23.93;;
50495;SDS011;38806;51.554;5.704;2023-09-12T05:21:45;51.47;;;28.13;;
50495;SDS011;38806;51.554;5.704;2023-09-12T05:23:45;52.72;;;30.15;;
50495;SDS011;38806;51.554;5.704;2023-09-12T05:25:45;58.27;;;32.43;;
50495;SDS011;38806;51.554;5.704;2023-09-12T05:27:45;68.07;;;35.37;;
50495;SDS011;38806;51.554;5.704;2023-09-12T05:29:45;67.47;;;40.63;;
50495;SDS011;38806;51.554;5.704;2023-09-12T05:31:46;85.50;;;44.60;;
50495;SDS011;38806;51.554;5.704;2023-09-12T05:33:46;80.13;;;41.60;;
50495;SDS011;38806;51.554;5.704;2023-09-12T05:35:46;81.38;;;46.22;;
50495;SDS011;38806;51.554;5.704;2023-09-12T05:37:46;87.03;;;44.35;;
50495;SDS011;38806;51.554;5.704;2023-09-12T05:39:47;78.95;;;41.72;;
50495;SDS011;38806;51.554;5.704;2023-09-12T05:41:48;78.20;;;44.00;;
50495;SDS011;38806;51.554;5.704;2023-09-12T05:43:48;76.10;;;44.10;;
50495;SDS011;38806;51.554;5.704;2023-09-12T05:45:48;76.55;;;42.90;;
50495;SDS011;38806;51.554;5.704;2023-09-12T05:47:49;75.55;;;42.13;;
50495;SDS011;38806;51.554;5.704;2023-09-12T05:49:50;58.88;;;32.97;;
50495;SDS011;38806;51.554;5.704;2023-09-12T05:51:50;67.78;;;39.85;;
50495;SDS011;38806;51.554;5.704;2023-09-12T05:53:50;73.70;;;41.47;;
50495;SDS011;38806;51.554;5.704;2023-09-12T05:55:51;78.63;;;39.30;;
50495;SDS011;38806;51.554;5.704;2023-09-12T05:57:51;84.38;;;45.10;;
50495;SDS011;38806;51.554;5.704;2023-09-12T05:59:52;68.13;;;38.70;;
50495;SDS011;38806;51.554;5.704;2023-09-12T06:01:53;79.03;;;43.50;;
50495;SDS011;38806;51.554;5.704;2023-09-12T06:03:53;65.45;;;33.78;;
50495;SDS011;38806;51.554;5.704;2023-09-12T06:05:54;60.85;;;35.90;;
50495;SDS011;38806;51.554;5.704;2023-09-12T06:07:54;73.13;;;40.20;;
50495;SDS011;38806;51.554;5.704;2023-09-12T06:09:54;67.78;;;37.33;;
50495;SDS011;38806;51.554;5.704;2023-09-12T06:11:54;57.97;;;34.47;;
50495;SDS011;38806;51.554;5.704;2023-09-12T06:13:55;56.80;;;33.03;;
50495;SDS011;38806;51.554;5.704;2023-09-12T06:15:55;57.00;;;31.17;;
50495;SDS011;38806;51.554;5.704;2023-09-12T06:17:55;61.70;;;35.80;;
50495;SDS011;38806;51.554;5.704;2023-09-12T06:19:55;77.50;;;40.22;;
50495;SDS011;38806;51.554;5.704;2023-09-12T06:21:56;65.88;;;36.90;;
50495;SDS011;38806;51.554;5.704;2023-09-12T06:26:29;55.53;;;34.20;;
50495;SDS011;38806;51.554;5.704;2023-09-12T06:28:29;66.18;;;36.45;;
50495;SDS011;38806;51.554;5.704;2023-09-12T06:30:30;48.80;;;28.65;;
50495;SDS011;38806;51.554;5.704;2023-09-12T06:32:30;51.23;;;28.80;;
50495;SDS011;38806;51.554;5.704;2023-09-12T06:34:30;49.63;;;28.55;;
50495;SDS011;38806;51.554;5.704;2023-09-12T06:36:30;48.05;;;29.30;;
50495;SDS011;38806;51.554;5.704;2023-09-12T06:38:31;47.53;;;28.35;;
50495;SDS011;38806;51.554;5.704;2023-09-12T06:40:31;43.10;;;27.53;;
50495;SDS011;38806;51.554;5.704;2023-09-12T06:42:31;56.53;;;33.17;;
50495;SDS011;38806;51.554;5.704;2023-09-12T06:44:31;46.43;;;28.23;;
50495;SDS011;38806;51.554;5.704;2023-09-12T06:46:31;49.53;;;30.40;;
50495;SDS011;38806;51.554;5.704;2023-09-12T06:48:35;66.57;;;35.42;;
50495;SDS011;38806;51.554;5.704;2023-09-12T06:50:36;74.07;;;41.03;;
50495;SDS011;38806;51.554;5.704;2023-09-12T06:52:38;73.93;;;39.08;;
50495;SDS011;38806;51.554;5.704;2023-09-12T06:54:38;72.97;;;41.80;;
50495;SDS011;38806;51.554;5.704;2023-09-12T06:56:38;76.70;;;40.30;;
50495;SDS011;38806;51.554;5.704;2023-09-12T06:58:41;70.80;;;42.17;;
50495;SDS011;38806;51.554;5.704;2023-09-12T07:00:41;70.37;;;40.47;;
50495;SDS011;38806;51.554;5.704;2023-09-12T07:02:42;64.30;;;39.67;;
50495;SDS011;38806;51.554;5.704;2023-09-12T07:04:42;72.63;;;38.58;;
50495;SDS011;38806;51.554;5.704;2023-09-12T07:06:42;59.53;;;36.40;;
50495;SDS011;38806;51.554;5.704;2023-09-12T07:08:43;76.68;;;44.38;;
50495;SDS011;38806;51.554;5.704;2023-09-12T07:10:43;68.60;;;42.53;;
50495;SDS011;38806;51.554;5.704;2023-09-12T07:12:45;66.55;;;40.35;;
50495;SDS011;38806;51.554;5.704;2023-09-12T07:14:45;74.70;;;40.55;;
50495;SDS011;38806;51.554;5.704;2023-09-12T07:16:45;66.47;;;42.63;;
50495;SDS011;38806;51.554;5.704;2023-09-12T07:18:47;72.43;;;42.10;;
50495;SDS011;38806;51.554;5.704;2023-09-12T07:20:54;67.07;;;40.75;;
50495;SDS011;38806;51.554;5.704;2023-09-12T07:22:56;71.32;;;41.95;;
50495;SDS011;38806;51.554;5.704;2023-09-12T07:24:59;65.73;;;40.37;;
50495;SDS011;38806;51.554;5.704;2023-09-12T07:26:59;67.22;;;40.90;;
50495;SDS011;38806;51.554;5.704;2023-09-12T07:28:59;71.88;;;41.20;;
50495;SDS011;38806;51.554;5.704;2023-09-12T07:31:02;67.15;;;40.47;;
50495;SDS011;38806;51.554;5.704;2023-09-12T07:33:03;62.47;;;41.60;;
50495;SDS011;38806;51.554;5.704;2023-09-12T07:35:04;66.32;;;41.97;;
50495;SDS011;38806;51.554;5.704;2023-09-12T07:37:04;63.65;;;39.28;;
50495;SDS011;38806;51.554;5.704;2023-09-12T07:39:04;74.43;;;41.03;;
50495;SDS011;38806;51.554;5.704;2023-09-12T07:41:05;63.15;;;38.40;;
50495;SDS011;38806;51.554;5.704;2023-09-12T07:43:05;57.17;;;39.10;;
50495;SDS011;38806;51.554;5.704;2023-09-12T07:45:07;62.50;;;39.10;;
50495;SDS011;38806;51.554;5.704;2023-09-12T07:47:07;65.82;;;40.58;;
50495;SDS011;38806;51.554;5.704;2023-09-12T07:49:08;67.97;;;40.80;;
50495;SDS011;38806;51.554;5.704;2023-09-12T07:51:12;61.28;;;39.15;;
50495;SDS011;38806;51.554;5.704;2023-09-12T07:53:14;77.05;;;47.72;;
50495;SDS011;38806;51.554;5.704;2023-09-12T07:55:14;61.93;;;41.53;;
50495;SDS011;38806;51.554;5.704;2023-09-12T07:57:14;76.70;;;44.43;;
50495;SDS011;38806;51.554;5.704;2023-09-12T07:59:14;68.80;;;43.80;;
50495;SDS011;38806;51.554;5.704;2023-09-12T08:01:14;64.90;;;41.58;;
50495;SDS011;38806;51.554;5.704;2023-09-12T08:03:15;60.07;;;40.70;;
50495;SDS011;38806;51.554;5.704;2023-09-12T08:05:15;62.72;;;40.92;;
50495;SDS011;38806;51.554;5.704;2023-09-12T08:07:15;64.70;;;40.95;;
50495;SDS011;38806;51.554;5.704;2023-09-12T08:09:15;66.37;;;42.67;;
50495;SDS011;38806;51.554;5.704;2023-09-12T08:11:16;64.83;;;40.03;;
50495;SDS011;38806;51.554;5.704;2023-09-12T08:13:16;54.88;;;35.92;;
50495;SDS011;38806;51.554;5.704;2023-09-12T08:15:16;58.55;;;39.92;;
50495;SDS011;38806;51.554;5.704;2023-09-12T08:17:16;54.22;;;36.05;;
50495;SDS011;38806;51.554;5.704;2023-09-12T08:19:16;53.65;;;34.10;;
50495;SDS011;38806;51.554;5.704;2023-09-12T08:21:17;51.07;;;35.57;;
50495;SDS011;38806;51.554;5.704;2023-09-12T08:23:17;53.63;;;39.67;;
50495;SDS011;38806;51.554;5.704;2023-09-12T08:25:17;46.83;;;32.03;;
50495;SDS011;38806;51.554;5.704;2023-09-12T08:27:18;47.47;;;33.03;;
50495;SDS011;38806;51.554;5.704;2023-09-12T08:29:18;45.37;;;29.47;;
50495;SDS011;38806;51.554;5.704;2023-09-12T08:31:18;37.13;;;28.07;;
50495;SDS011;38806;51.554;5.704;2023-09-12T08:33:18;39.10;;;24.63;;
50495;SDS011;38806;51.554;5.704;2023-09-12T08:35:19;32.95;;;23.23;;
50495;SDS011;38806;51.554;5.704;2023-09-12T08:37:19;32.03;;;22.30;;
50495;SDS011;38806;51.554;5.704;2023-09-12T08:39:26;35.37;;;23.97;;
50495;SDS011;38806;51.554;5.704;2023-09-12T08:41:26;34.40;;;23.75;;
50495;SDS011;38806;51.554;5.704;2023-09-12T08:43:26;28.23;;;21.00;;
50495;SDS011;38806;51.554;5.704;2023-09-12T08:45:27;29.60;;;23.43;;
50495;SDS011;38806;51.554;5.704;2023-09-12T08:47:27;31.67;;;21.23;;
50495;SDS011;38806;51.554;5.704;2023-09-12T08:49:27;35.73;;;25.43;;
50495;SDS011;38806;51.554;5.704;2023-09-12T08:51:28;29.73;;;22.10;;
50495;SDS011;38806;51.554;5.704;2023-09-12T08:53:28;32.33;;;22.92;;
50495;SDS011;38806;51.554;5.704;2023-09-12T08:55:29;34.03;;;22.37;;
50495;SDS011;38806;51.554;5.704;2023-09-12T08:57:30;33.22;;;23.33;;
50495;SDS011;38806;51.554;5.704;2023-09-12T08:59:33;32.22;;;22.00;;
50495;SDS011;38806;51.554;5.704;2023-09-12T09:01:34;25.95;;;19.35;;
50495;SDS011;38806;51.554;5.704;2023-09-12T09:03:35;25.15;;;18.42;;
50495;SDS011;38806;51.554;5.704;2023-09-12T09:05:35;24.20;;;18.02;;
50495;SDS011;38806;51.554;5.704;2023-09-12T09:07:37;23.98;;;16.73;;
50495;SDS011;38806;51.554;5.704;2023-09-12T09:09:38;17.05;;;13.25;;
50495;SDS011;38806;51.554;5.704;2023-09-12T09:11:38;20.33;;;15.23;;
50495;SDS011;38806;51.554;5.704;2023-09-12T09:13:38;18.13;;;14.80;;
50495;SDS011;38806;51.554;5.704;2023-09-12T09:15:39;17.67;;;14.30;;
50495;SDS011;38806;51.554;5.704;2023-09-12T09:17:42;21.38;;;16.50;;
50495;SDS011;38806;51.554;5.704;2023-09-12T09:19:43;25.25;;;17.58;;
50495;SDS011;38806;51.554;5.704;2023-09-12T09:21:43;21.13;;;16.42;;
50495;SDS011;38806;51.554;5.704;2023-09-12T09:23:44;23.27;;;17.10;;
50495;SDS011;38806;51.554;5.704;2023-09-12T09:25:45;20.35;;;16.02;;
50495;SDS011;38806;51.554;5.704;2023-09-12T09:27:51;16.40;;;12.48;;
50495;SDS011;38806;51.554;5.704;2023-09-12T09:29:51;20.33;;;14.17;;
50495;SDS011;38806;51.554;5.704;2023-09-12T09:31:52;18.13;;;14.27;;
50495;SDS011;38806;51.554;5.704;2023-09-12T09:33:52;20.85;;;14.88;;
50495;SDS011;38806;51.554;5.704;2023-09-12T09:35:54;21.30;;;14.43;;
50495;SDS011;38806;51.554;5.704;2023-09-12T09:38:02;22.13;;;13.88;;
50495;SDS011;38806;51.554;5.704;2023-09-12T09:40:05;19.50;;;13.73;;
50495;SDS011;38806;51.554;5.704;2023-09-12T09:42:05;21.40;;;15.82;;
50495;SDS011;38806;51.554;5.704;2023-09-12T09:44:09;22.60;;;16.50;;
50495;SDS011;38806;51.554;5.704;2023-09-12T09:46:14;19.98;;;15.13;;
50495;SDS011;38806;51.554;5.704;2023-09-12T09:48:21;20.38;;;13.15;;
50495;SDS011;38806;51.554;5.704;2023-09-12T09:50:22;19.08;;;14.00;;
50495;SDS011;38806;51.554;5.704;2023-09-12T09:52:25;17.15;;;12.05;;
50495;SDS011;38806;51.554;5.704;2023-09-12T09:54:27;21.27;;;14.70;;
50495;SDS011;38806;51.554;5.704;2023-09-12T09:56:27;20.42;;;15.45;;
50495;SDS011;38806;51.554;5.704;2023-09-12T09:58:28;19.75;;;14.43;;
50495;SDS011;38806;51.554;5.704;2023-09-12T10:00:28;22.17;;;16.40;;
50495;SDS011;38806;51.554;5.704;2023-09-12T10:02:29;23.45;;;16.17;;
50495;SDS011;38806;51.554;5.704;2023-09-12T10:04:29;23.43;;;17.23;;
50495;SDS011;38806;51.554;5.704;2023-09-12T10:06:31;22.08;;;15.98;;
50495;SDS011;38806;51.554;5.704;2023-09-12T10:08:35;19.70;;;15.00;;
50495;SDS011;38806;51.554;5.704;2023-09-12T10:10:36;22.13;;;14.40;;
50495;SDS011;38806;51.554;5.704;2023-09-12T10:12:39;18.77;;;15.30;;
50495;SDS011;38806;51.554;5.704;2023-09-12T10:14:40;18.17;;;14.48;;
50495;SDS011;38806;51.554;5.704;2023-09-12T10:18:46;19.77;;;15.10;;
50495;SDS011;38806;51.554;5.704;2023-09-12T10:20:50;22.23;;;16.48;;
50495;SDS011;38806;51.554;5.704;2023-09-12T10:23:00;19.48;;;16.02;;
50495;SDS011;38806;51.554;5.704;2023-09-12T10:25:04;16.58;;;12.10;;
50495;SDS011;38806;51.554;5.704;2023-09-12T10:27:05;18.48;;;13.65;;
50495;SDS011;38806;51.554;5.704;2023-09-12T10:29:05;13.52;;;10.88;;
50495;SDS011;38806;51.554;5.704;2023-09-12T10:31:05;13.23;;;9.43;;
50495;SDS011;38806;51.554;5.704;2023-09-12T10:33:06;18.20;;;11.43;;
50495;SDS011;38806;51.554;5.704;2023-09-12T10:35:06;14.10;;;10.27;;
50495;SDS011;38806;51.554;5.704;2023-09-12T10:37:08;15.48;;;12.32;;
50495;SDS011;38806;51.554;5.704;2023-09-12T10:39:14;17.93;;;13.30;;
50495;SDS011;38806;51.554;5.704;2023-09-12T10:41:15;16.33;;;12.43;;
50495;SDS011;38806;51.554;5.704;2023-09-12T10:43:15;12.15;;;7.50;;
50495;SDS011;38806;51.554;5.704;2023-09-12T10:45:16;12.00;;;8.25;;
50495;SDS011;38806;51.554;5.704;2023-09-12T10:47:17;15.70;;;11.95;;
50495;SDS011;38806;51.554;5.704;2023-09-12T10:49:18;12.45;;;7.53;;
50495;SDS011;38806;51.554;5.704;2023-09-12T10:51:18;16.35;;;11.15;;
50495;SDS011;38806;51.554;5.704;2023-09-12T10:53:19;17.20;;;11.57;;
50495;SDS011;38806;51.554;5.704;2023-09-12T10:55:24;16.15;;;10.48;;
50495;SDS011;38806;51.554;5.704;2023-09-12T10:57:24;13.40;;;9.77;;
50495;SDS011;38806;51.554;5.704;2023-09-12T10:59:25;13.90;;;9.07;;
50495;SDS011;38806;51.554;5.704;2023-09-12T11:01:27;11.95;;;8.52;;
50495;SDS011;38806;51.554;5.704;2023-09-12T11:07:31;12.90;;;8.60;;
50495;SDS011;38806;51.554;5.704;2023-09-12T11:09:35;12.70;;;7.75;;
50495;SDS011;38806;51.554;5.704;2023-09-12T11:11:35;9.97;;;7.80;;
50495;SDS011;38806;51.554;5.704;2023-09-12T11:13:38;9.30;;;6.53;;
50495;SDS011;38806;51.554;5.704;2023-09-12T11:16:09;14.75;;;10.25;;
50495;SDS011;38806;51.554;5.704;2023-09-12T11:18:04;12.90;;;8.98;;
50495;SDS011;38806;51.554;5.704;2023-09-12T11:20:05;11.68;;;7.82;;
50495;SDS011;38806;51.554;5.704;2023-09-12T11:22:45;10.77;;;7.68;;
50495;SDS011;38806;51.554;5.704;2023-09-12T11:24:45;14.38;;;10.07;;
50495;SDS011;38806;51.554;5.704;2023-09-12T11:26:59;15.40;;;10.75;;
50495;SDS011;38806;51.554;5.704;2023-09-12T11:31:28;12.75;;;8.85;;
50495;SDS011;38806;51.554;5.704;2023-09-12T11:33:29;12.07;;;8.37;;
50495;SDS011;38806;51.554;5.704;2023-09-12T11:35:29;12.05;;;7.43;;
50495;SDS011;38806;51.554;5.704;2023-09-12T11:37:29;23.07;;;10.83;;
50495;SDS011;38806;51.554;5.704;2023-09-12T11:39:33;12.65;;;9.60;;
50495;SDS011;38806;51.554;5.704;2023-09-12T11:41:40;13.35;;;9.65;;
50495;SDS011;38806;51.554;5.704;2023-09-12T11:43:40;10.32;;;8.63;;
50495;SDS011;38806;51.554;5.704;2023-09-12T11:45:44;15.63;;;10.05;;
50495;SDS011;38806;51.554;5.704;2023-09-12T11:47:45;16.10;;;10.73;;
50495;SDS011;38806;51.554;5.704;2023-09-12T11:49:45;16.27;;;11.10;;
50495;SDS011;38806;51.554;5.704;2023-09-12T11:51:47;13.68;;;9.95;;
50495;SDS011;38806;51.554;5.704;2023-09-12T11:53:49;15.50;;;10.45;;
50495;SDS011;38806;51.554;5.704;2023-09-12T11:55:50;14.75;;;10.10;;
50495;SDS011;38806;51.554;5.704;2023-09-12T11:57:51;14.63;;;9.23;;
50495;SDS011;38806;51.554;5.704;2023-09-12T11:59:51;11.40;;;8.30;;
50495;SDS011;38806;51.554;5.704;2023-09-12T12:01:52;14.52;;;9.35;;
50495;SDS011;38806;51.554;5.704;2023-09-12T12:03:53;13.68;;;8.60;;
50495;SDS011;38806;51.554;5.704;2023-09-12T12:05:54;16.00;;;10.85;;
50495;SDS011;38806;51.554;5.704;2023-09-12T12:07:55;13.25;;;10.50;;